sensor_id;sensor_type;location;lat;lon;timestamp;pressure;altitude;pressure_sealevel;temperature;humidity
49943;BME280;36011;53.362;58.948;2022-11-15T00:00:29;94492.16;;;-3.55;74.24
49943;BME280;36011;53.362;58.948;2022-11-15T00:03:31;94479.16;;;-3.70;74.35
49943;BME280;36011;53.362;58.948;2022-11-15T00:06:34;94500.31;;;-3.65;74.13
49943;BME280;36011;53.362;58.948;2022-11-15T00:09:41;94498.50;;;-3.63;74.19
49943;BME280;36011;53.362;58.948;2022-11-15T00:12:49;94492.63;;;-3.65;73.79
49943;BME280;36011;53.362;58.948;2022-11-15T00:15:59;94509.84;;;-3.67;74.45
49943;BME280;36011;53.362;58.948;2022-11-15T00:19:03;94502.13;;;-3.67;74.30
49943;BME280;36011;53.362;58.948;2022-11-15T00:22:07;94514.53;;;-3.57;73.92
49943;BME280;36011;53.362;58.948;2022-11-15T00:25:13;94512.09;;;-3.61;73.63
49943;BME280;36011;53.362;58.948;2022-11-15T00:28:17;94511.06;;;-3.56;73.04
49943;BME280;36011;53.362;58.948;2022-11-15T00:31:26;94519.97;;;-3.64;73.73
49943;BME280;36011;53.362;58.948;2022-11-15T00:34:30;94520.25;;;-3.70;73.56
49943;BME280;36011;53.362;58.948;2022-11-15T00:37:33;94525.47;;;-3.71;73.72
49943;BME280;36011;53.362;58.948;2022-11-15T00:40:38;94533.72;;;-3.65;73.88
49943;BME280;36011;53.362;58.948;2022-11-15T00:43:46;94525.25;;;-3.67;73.51
49943;BME280;36011;53.362;58.948;2022-11-15T00:46:50;94533.59;;;-3.62;73.98
49943;BME280;36011;53.362;58.948;2022-11-15T00:49:53;94529.41;;;-3.64;73.80
49943;BME280;36011;53.362;58.948;2022-11-15T00:52:55;94534.41;;;-3.61;74.06
49943;BME280;36011;53.362;58.948;2022-11-15T00:56:00;94537.03;;;-3.63;74.28
49943;BME280;36011;53.362;58.948;2022-11-15T00:59:06;94540.47;;;-3.62;74.33
49943;BME280;36011;53.362;58.948;2022-11-15T01:02:10;94538.72;;;-3.62;74.53
49943;BME280;36011;53.362;58.948;2022-11-15T01:05:15;94540.53;;;-3.64;74.57
49943;BME280;36011;53.362;58.948;2022-11-15T01:08:21;94539.69;;;-3.64;74.89
49943;BME280;36011;53.362;58.948;2022-11-15T01:11:28;94537.91;;;-3.62;75.03
49943;BME280;36011;53.362;58.948;2022-11-15T01:14:36;94541.78;;;-3.53;75.12
49943;BME280;36011;53.362;58.948;2022-11-15T01:17:40;94548.56;;;-3.52;75.04
49943;BME280;36011;53.362;58.948;2022-11-15T01:20:47;94550.31;;;-3.53;75.27
49943;BME280;36011;53.362;58.948;2022-11-15T01:23:53;94546.91;;;-3.53;75.35
49943;BME280;36011;53.362;58.948;2022-11-15T01:26:55;94557.06;;;-3.50;75.43
49943;BME280;36011;53.362;58.948;2022-11-15T01:29:56;94555.38;;;-3.51;75.25
49943;BME280;36011;53.362;58.948;2022-11-15T01:33:02;94543.56;;;-3.55;74.92
49943;BME280;36011;53.362;58.948;2022-11-15T01:36:05;94555.94;;;-3.64;75.24
49943;BME280;36011;53.362;58.948;2022-11-15T01:39:10;94559.44;;;-3.65;74.90
49943;BME280;36011;53.362;58.948;2022-11-15T01:42:13;94561.59;;;-3.74;75.04
49943;BME280;36011;53.362;58.948;2022-11-15T01:45:18;94561.53;;;-3.73;75.15
49943;BME280;36011;53.362;58.948;2022-11-15T01:48:20;94561.97;;;-3.82;74.99
49943;BME280;36011;53.362;58.948;2022-11-15T01:51:30;94565.25;;;-3.80;75.09
49943;BME280;36011;53.362;58.948;2022-11-15T01:54:37;94560.41;;;-3.86;75.05
49943;BME280;36011;53.362;58.948;2022-11-15T01:57:45;94564.72;;;-3.87;75.34
49943;BME280;36011;53.362;58.948;2022-11-15T02:00:51;94574.31;;;-3.90;74.96
49943;BME280;36011;53.362;58.948;2022-11-15T02:04:02;94577.91;;;-3.94;75.13
49943;BME280;36011;53.362;58.948;2022-11-15T02:07:09;94580.63;;;-3.97;75.22
49943;BME280;36011;53.362;58.948;2022-11-15T02:10:19;94573.34;;;-4.07;75.25
49943;BME280;36011;53.362;58.948;2022-11-15T02:13:21;94584.25;;;-4.01;75.52
49943;BME280;36011;53.362;58.948;2022-11-15T02:23:20;94595.53;;;-4.06;75.25
49943;BME280;36011;53.362;58.948;2022-11-15T02:34:00;94609.44;;;-4.10;74.78
49943;BME280;36011;53.362;58.948;2022-11-15T02:37:15;94606.78;;;-4.08;75.26
49943;BME280;36011;53.362;58.948;2022-11-15T02:43:51;94611.50;;;-4.18;75.09
49943;BME280;36011;53.362;58.948;2022-11-15T02:47:12;94613.16;;;-4.17;75.49
49943;BME280;36011;53.362;58.948;2022-11-15T02:50:20;94614.84;;;-4.16;75.37
49943;BME280;36011;53.362;58.948;2022-11-15T02:53:27;94618.28;;;-4.17;75.46
49943;BME280;36011;53.362;58.948;2022-11-15T02:56:28;94623.41;;;-4.17;75.22
49943;BME280;36011;53.362;58.948;2022-11-15T02:59:34;94631.75;;;-4.12;75.25
49943;BME280;36011;53.362;58.948;2022-11-15T03:06:32;94635.66;;;-4.03;74.98
49943;BME280;36011;53.362;58.948;2022-11-15T03:13:09;94645.09;;;-4.03;75.16
49943;BME280;36011;53.362;58.948;2022-11-15T03:16:24;94640.94;;;-4.06;75.28
49943;BME280;36011;53.362;58.948;2022-11-15T03:19:50;94639.06;;;-4.02;75.38
49943;BME280;36011;53.362;58.948;2022-11-15T03:22:58;94653.59;;;-4.01;75.50
49943;BME280;36011;53.362;58.948;2022-11-15T03:26:07;94650.94;;;-4.00;75.18
49943;BME280;36011;53.362;58.948;2022-11-15T03:29:19;94658.47;;;-3.95;75.25
49943;BME280;36011;53.362;58.948;2022-11-15T03:32:32;94662.91;;;-3.99;75.15
49943;BME280;36011;53.362;58.948;2022-11-15T03:35:40;94672.91;;;-3.93;75.34
49943;BME280;36011;53.362;58.948;2022-11-15T03:38:44;94669.50;;;-3.93;75.28
49943;BME280;36011;53.362;58.948;2022-11-15T03:48:14;94680.41;;;-3.88;75.55
49943;BME280;36011;53.362;58.948;2022-11-15T03:51:20;94681.25;;;-3.88;75.02
49943;BME280;36011;53.362;58.948;2022-11-15T03:54:29;94685.53;;;-3.88;74.70
49943;BME280;36011;53.362;58.948;2022-11-15T03:57:33;94687.41;;;-3.92;75.08
49943;BME280;36011;53.362;58.948;2022-11-15T04:00:40;94694.19;;;-3.91;75.17
49943;BME280;36011;53.362;58.948;2022-11-15T04:03:44;94699.28;;;-3.89;75.02
49943;BME280;36011;53.362;58.948;2022-11-15T04:06:46;94708.34;;;-3.80;74.71
49943;BME280;36011;53.362;58.948;2022-11-15T04:09:52;94705.72;;;-3.79;74.55
49943;BME280;36011;53.362;58.948;2022-11-15T04:13:04;94702.22;;;-3.78;74.46
49943;BME280;36011;53.362;58.948;2022-11-15T04:16:06;94709.88;;;-3.76;74.78
49943;BME280;36011;53.362;58.948;2022-11-15T04:19:10;94672.06;;;-3.93;74.79
49943;BME280;36011;53.362;58.948;2022-11-15T04:22:30;94713.66;;;-3.65;74.21
49943;BME280;36011;53.362;58.948;2022-11-15T04:25:58;94721.91;;;-3.58;74.41
49943;BME280;36011;53.362;58.948;2022-11-15T04:29:00;94716.72;;;-3.56;74.34
49943;BME280;36011;53.362;58.948;2022-11-15T04:32:37;94733.25;;;-3.43;73.64
49943;BME280;36011;53.362;58.948;2022-11-15T04:35:42;94731.09;;;-3.52;73.97
49943;BME280;36011;53.362;58.948;2022-11-15T04:38:46;94740.31;;;-3.48;73.19
49943;BME280;36011;53.362;58.948;2022-11-15T04:41:50;94740.31;;;-3.48;73.53
49943;BME280;36011;53.362;58.948;2022-11-15T04:44:54;94748.53;;;-3.40;73.70
49943;BME280;36011;53.362;58.948;2022-11-15T04:47:59;94753.44;;;-3.34;72.69
49943;BME280;36011;53.362;58.948;2022-11-15T04:51:03;94749.81;;;-3.30;72.80
49943;BME280;36011;53.362;58.948;2022-11-15T04:54:07;94751.47;;;-3.29;72.63
49943;BME280;36011;53.362;58.948;2022-11-15T04:57:12;94741.63;;;-3.19;72.65
49943;BME280;36011;53.362;58.948;2022-11-15T05:00:16;94748.97;;;-3.11;71.96
49943;BME280;36011;53.362;58.948;2022-11-15T05:03:20;94750.66;;;-3.10;71.67
49943;BME280;36011;53.362;58.948;2022-11-15T05:06:43;94767.59;;;-3.06;71.21
49943;BME280;36011;53.362;58.948;2022-11-15T05:09:44;94774.44;;;-3.05;72.00
49943;BME280;36011;53.362;58.948;2022-11-15T05:12:48;94773.56;;;-2.87;71.74
49943;BME280;36011;53.362;58.948;2022-11-15T05:15:52;94776.19;;;-2.69;70.56
49943;BME280;36011;53.362;58.948;2022-11-15T05:18:58;94773.97;;;-2.58;69.04
49943;BME280;36011;53.362;58.948;2022-11-15T05:22:03;94776.84;;;-2.47;67.38
49943;BME280;36011;53.362;58.948;2022-11-15T05:25:05;94778.69;;;-2.49;66.82
49943;BME280;36011;53.362;58.948;2022-11-15T05:28:12;94785.94;;;-2.57;67.66
49943;BME280;36011;53.362;58.948;2022-11-15T05:31:15;94785.59;;;-2.32;67.25
49943;BME280;36011;53.362;58.948;2022-11-15T05:34:17;94789.75;;;-2.30;67.42
49943;BME280;36011;53.362;58.948;2022-11-15T05:37:21;94789.81;;;-2.12;66.43
49943;BME280;36011;53.362;58.948;2022-11-15T05:40:23;94791.00;;;-2.19;65.70
49943;BME280;36011;53.362;58.948;2022-11-15T05:43:25;94792.19;;;-2.27;64.36
49943;BME280;36011;53.362;58.948;2022-11-15T05:46:34;94799.91;;;-2.27;64.35
49943;BME280;36011;53.362;58.948;2022-11-15T05:49:42;94804.94;;;-2.23;64.38
49943;BME280;36011;53.362;58.948;2022-11-15T05:52:50;94800.84;;;-2.10;62.75
49943;BME280;36011;53.362;58.948;2022-11-15T05:55:54;94805.13;;;-2.09;63.60
49943;BME280;36011;53.362;58.948;2022-11-15T05:59:00;94800.69;;;-2.07;63.53
49943;BME280;36011;53.362;58.948;2022-11-15T06:02:06;94802.97;;;-2.01;63.79
49943;BME280;36011;53.362;58.948;2022-11-15T06:05:10;94807.41;;;-1.86;62.62
49943;BME280;36011;53.362;58.948;2022-11-15T06:08:19;94815.28;;;-1.89;62.50
49943;BME280;36011;53.362;58.948;2022-11-15T06:11:22;94813.31;;;-1.66;62.87
49943;BME280;36011;53.362;58.948;2022-11-15T06:14:24;94812.50;;;-1.33;61.53
49943;BME280;36011;53.362;58.948;2022-11-15T06:17:28;94809.31;;;-1.21;59.79
49943;BME280;36011;53.362;58.948;2022-11-15T06:20:35;94821.09;;;-1.00;60.20
49943;BME280;36011;53.362;58.948;2022-11-15T06:23:36;94822.47;;;-0.61;59.17
49943;BME280;36011;53.362;58.948;2022-11-15T06:26:40;94824.97;;;-0.28;57.54
49943;BME280;36011;53.362;58.948;2022-11-15T06:29:46;94839.56;;;0.19;55.69
49943;BME280;36011;53.362;58.948;2022-11-15T06:32:58;94822.44;;;0.92;54.91
49943;BME280;36011;53.362;58.948;2022-11-15T06:36:04;94841.66;;;1.73;52.53
49943;BME280;36011;53.362;58.948;2022-11-15T06:39:08;94830.31;;;2.68;51.12
49943;BME280;36011;53.362;58.948;2022-11-15T06:42:13;94835.69;;;3.55;49.98
49943;BME280;36011;53.362;58.948;2022-11-15T06:45:16;94846.88;;;4.42;48.90
49943;BME280;36011;53.362;58.948;2022-11-15T06:48:18;94846.75;;;5.48;47.87
49943;BME280;36011;53.362;58.948;2022-11-15T06:51:21;94847.22;;;5.75;45.11
49943;BME280;36011;53.362;58.948;2022-11-15T06:54:23;94845.78;;;5.37;42.62
49943;BME280;36011;53.362;58.948;2022-11-15T06:57:26;94809.59;;;4.17;43.66
49943;BME280;36011;53.362;58.948;2022-11-15T07:00:29;94844.44;;;4.63;43.99
49943;BME280;36011;53.362;58.948;2022-11-15T07:03:31;94852.25;;;4.63;41.47
49943;BME280;36011;53.362;58.948;2022-11-15T07:06:37;94846.69;;;3.71;43.25
49943;BME280;36011;53.362;58.948;2022-11-15T07:09:41;94855.06;;;3.00;43.82
49943;BME280;36011;53.362;58.948;2022-11-15T07:12:50;94854.47;;;3.09;44.15
49943;BME280;36011;53.362;58.948;2022-11-15T07:15:51;94863.53;;;3.78;42.79
49943;BME280;36011;53.362;58.948;2022-11-15T07:18:52;94865.41;;;4.97;40.79
49943;BME280;36011;53.362;58.948;2022-11-15T07:21:56;94861.56;;;6.47;38.02
49943;BME280;36011;53.362;58.948;2022-11-15T07:25:00;94860.06;;;7.70;37.20
49943;BME280;36011;53.362;58.948;2022-11-15T07:28:04;94864.06;;;8.65;35.97
49943;BME280;36011;53.362;58.948;2022-11-15T07:31:10;94866.72;;;8.34;33.04
49943;BME280;36011;53.362;58.948;2022-11-15T07:34:16;94861.09;;;5.98;35.02
49943;BME280;36011;53.362;58.948;2022-11-15T07:37:25;94848.75;;;4.75;37.44
49943;BME280;36011;53.362;58.948;2022-11-15T07:40:41;94870.44;;;5.33;37.35
49943;BME280;36011;53.362;58.948;2022-11-15T07:43:44;94871.66;;;5.97;36.44
49943;BME280;36011;53.362;58.948;2022-11-15T07:46:46;94873.63;;;6.59;34.95
49943;BME280;36011;53.362;58.948;2022-11-15T07:49:50;94880.59;;;7.23;35.05
49943;BME280;36011;53.362;58.948;2022-11-15T07:52:58;94888.09;;;7.28;33.53
49943;BME280;36011;53.362;58.948;2022-11-15T07:56:08;94881.22;;;6.62;34.26
49943;BME280;36011;53.362;58.948;2022-11-15T07:59:12;94890.13;;;5.71;35.60
49943;BME280;36011;53.362;58.948;2022-11-15T08:02:13;94891.91;;;5.37;36.32
49943;BME280;36011;53.362;58.948;2022-11-15T08:05:20;94886.63;;;4.44;38.04
49943;BME280;36011;53.362;58.948;2022-11-15T08:08:21;94891.94;;;4.66;37.81
49943;BME280;36011;53.362;58.948;2022-11-15T08:11:29;94887.47;;;5.15;37.77
49943;BME280;36011;53.362;58.948;2022-11-15T08:14:36;94887.66;;;5.58;37.07
49943;BME280;36011;53.362;58.948;2022-11-15T08:17:43;94889.44;;;5.58;36.84
49943;BME280;36011;53.362;58.948;2022-11-15T08:20:44;94897.81;;;4.92;36.92
49943;BME280;36011;53.362;58.948;2022-11-15T08:23:45;94909.50;;;4.52;37.99
49943;BME280;36011;53.362;58.948;2022-11-15T08:26:52;94905.06;;;4.17;38.42
49943;BME280;36011;53.362;58.948;2022-11-15T08:29:54;94912.47;;;3.60;39.07
49943;BME280;36011;53.362;58.948;2022-11-15T08:33:00;94912.03;;;3.15;39.78
49943;BME280;36011;53.362;58.948;2022-11-15T08:36:03;94913.75;;;2.22;41.47
49943;BME280;36011;53.362;58.948;2022-11-15T08:39:08;94925.16;;;1.35;42.80
49943;BME280;36011;53.362;58.948;2022-11-15T08:42:10;94928.09;;;1.15;43.60
49943;BME280;36011;53.362;58.948;2022-11-15T08:45:17;94934.03;;;1.31;43.27
49943;BME280;36011;53.362;58.948;2022-11-15T08:48:21;94930.25;;;1.66;42.64
49943;BME280;36011;53.362;58.948;2022-11-15T08:51:25;94932.72;;;1.24;43.29
49943;BME280;36011;53.362;58.948;2022-11-15T08:54:26;94929.63;;;0.59;44.56
49943;BME280;36011;53.362;58.948;2022-11-15T08:57:35;94944.13;;;0.15;44.92
49943;BME280;36011;53.362;58.948;2022-11-15T09:00:42;94935.00;;;-0.39;46.28
49943;BME280;36011;53.362;58.948;2022-11-15T09:03:46;94947.66;;;-0.68;47.35
49943;BME280;36011;53.362;58.948;2022-11-15T09:06:48;94947.88;;;-0.88;48.49
49943;BME280;36011;53.362;58.948;2022-11-15T09:09:49;94948.28;;;-0.96;48.55
49943;BME280;36011;53.362;58.948;2022-11-15T09:12:51;94957.91;;;-1.17;49.97
49943;BME280;36011;53.362;58.948;2022-11-15T09:16:00;94957.91;;;-1.17;50.58
49943;BME280;36011;53.362;58.948;2022-11-15T09:19:03;94963.31;;;-1.22;50.83
49943;BME280;36011;53.362;58.948;2022-11-15T09:22:08;94966.88;;;-1.24;51.11
49943;BME280;36011;53.362;58.948;2022-11-15T09:25:12;94973.69;;;-1.23;51.86
49943;BME280;36011;53.362;58.948;2022-11-15T09:28:18;94976.28;;;-1.06;51.75
49943;BME280;36011;53.362;58.948;2022-11-15T09:31:22;94967.06;;;-0.77;51.10
49943;BME280;36011;53.362;58.948;2022-11-15T09:34:30;94961.88;;;-0.10;49.46
49943;BME280;36011;53.362;58.948;2022-11-15T09:37:37;94990.06;;;0.42;49.04
49943;BME280;36011;53.362;58.948;2022-11-15T09:40:41;94994.91;;;0.64;48.14
49943;BME280;36011;53.362;58.948;2022-11-15T09:49:54;95005.94;;;-0.29;50.15
49943;BME280;36011;53.362;58.948;2022-11-15T09:52:56;95003.63;;;-0.34;49.88
49943;BME280;36011;53.362;58.948;2022-11-15T09:56:22;95011.41;;;-0.69;51.30
49943;BME280;36011;53.362;58.948;2022-11-15T10:02:46;95025.63;;;-0.95;52.25
49943;BME280;36011;53.362;58.948;2022-11-15T10:06:01;95034.19;;;-0.77;52.52
49943;BME280;36011;53.362;58.948;2022-11-15T10:09:25;95038.94;;;-0.68;52.51
49943;BME280;36011;53.362;58.948;2022-11-15T10:12:37;95043.69;;;-0.77;51.68
49943;BME280;36011;53.362;58.948;2022-11-15T10:15:44;95040.50;;;-0.82;51.91
49943;BME280;36011;53.362;58.948;2022-11-15T10:25:33;95072.75;;;-0.21;50.92
49943;BME280;36011;53.362;58.948;2022-11-15T10:28:37;95070.66;;;-0.31;51.48
49943;BME280;36011;53.362;58.948;2022-11-15T10:31:40;95079.72;;;-0.39;51.29
49943;BME280;36011;53.362;58.948;2022-11-15T10:34:45;95089.19;;;-0.40;50.48
49943;BME280;36011;53.362;58.948;2022-11-15T10:37:52;95095.50;;;-0.46;50.65
49943;BME280;36011;53.362;58.948;2022-11-15T10:41:10;95087.91;;;-0.66;50.41
49943;BME280;36011;53.362;58.948;2022-11-15T10:44:29;95094.13;;;-0.87;50.64
49943;BME280;36011;53.362;58.948;2022-11-15T10:47:35;95088.19;;;-1.07;50.23
49943;BME280;36011;53.362;58.948;2022-11-15T10:50:46;95095.16;;;-1.09;50.07
49943;BME280;36011;53.362;58.948;2022-11-15T10:53:54;95107.28;;;-1.11;49.90
49943;BME280;36011;53.362;58.948;2022-11-15T10:57:00;95101.19;;;-1.27;49.66
49943;BME280;36011;53.362;58.948;2022-11-15T11:00:29;95118.63;;;-1.51;50.13
49943;BME280;36011;53.362;58.948;2022-11-15T11:03:40;95120.19;;;-1.66;49.83
49943;BME280;36011;53.362;58.948;2022-11-15T11:06:53;95129.06;;;-1.73;49.93
49943;BME280;36011;53.362;58.948;2022-11-15T11:10:00;95121.81;;;-2.03;50.03
49943;BME280;36011;53.362;58.948;2022-11-15T11:13:24;95132.38;;;-2.09;50.32
49943;BME280;36011;53.362;58.948;2022-11-15T11:16:42;95128.25;;;-2.13;50.14
49943;BME280;36011;53.362;58.948;2022-11-15T11:19:55;95130.81;;;-2.13;50.03
49943;BME280;36011;53.362;58.948;2022-11-15T11:26:46;95137.00;;;-2.38;50.76
49943;BME280;36011;53.362;58.948;2022-11-15T11:33:13;95147.66;;;-2.88;52.72
49943;BME280;36011;53.362;58.948;2022-11-15T11:36:39;95149.44;;;-2.90;52.90
49943;BME280;36011;53.362;58.948;2022-11-15T11:47:07;95166.44;;;-3.30;53.99
49943;BME280;36011;53.362;58.948;2022-11-15T11:50:18;95167.34;;;-3.31;54.87
49943;BME280;36011;53.362;58.948;2022-11-15T11:53:37;95173.69;;;-3.40;55.10
49943;BME280;36011;53.362;58.948;2022-11-15T11:56:43;95169.41;;;-3.41;55.66
49943;BME280;36011;53.362;58.948;2022-11-15T11:59:53;95165.56;;;-3.52;56.12
49943;BME280;36011;53.362;58.948;2022-11-15T12:03:02;95174.31;;;-3.56;56.46
49943;BME280;36011;53.362;58.948;2022-11-15T12:12:58;95188.59;;;-3.73;56.68
49943;BME280;36011;53.362;58.948;2022-11-15T12:16:12;95192.72;;;-3.69;56.57
49943;BME280;36011;53.362;58.948;2022-11-15T12:19:21;95195.41;;;-3.72;56.09
49943;BME280;36011;53.362;58.948;2022-11-15T12:22:45;95190.38;;;-3.75;55.50
49943;BME280;36011;53.362;58.948;2022-11-15T12:26:00;95206.13;;;-3.84;54.80
49943;BME280;36011;53.362;58.948;2022-11-15T12:29:10;95213.19;;;-3.91;54.42
49943;BME280;36011;53.362;58.948;2022-11-15T12:32:34;95217.81;;;-4.00;54.84
49943;BME280;36011;53.362;58.948;2022-11-15T12:35:42;95213.16;;;-3.89;54.09
49943;BME280;36011;53.362;58.948;2022-11-15T12:39:00;95226.13;;;-3.92;54.54
49943;BME280;36011;53.362;58.948;2022-11-15T12:45:27;95239.91;;;-3.95;55.49
49943;BME280;36011;53.362;58.948;2022-11-15T12:54:53;95257.72;;;-4.15;57.29
49943;BME280;36011;53.362;58.948;2022-11-15T12:58:27;95262.03;;;-4.16;57.56
49943;BME280;36011;53.362;58.948;2022-11-15T13:04:34;95271.13;;;-4.32;58.30
49943;BME280;36011;53.362;58.948;2022-11-15T13:10:41;95278.22;;;-4.40;59.05
49943;BME280;36011;53.362;58.948;2022-11-15T13:13:45;95279.16;;;-4.43;59.65
49943;BME280;36011;53.362;58.948;2022-11-15T13:16:50;95276.94;;;-4.54;59.87
49943;BME280;36011;53.362;58.948;2022-11-15T13:23:11;95284.94;;;-4.64;59.23
49943;BME280;36011;53.362;58.948;2022-11-15T13:26:14;95285.81;;;-4.64;59.45
49943;BME280;36011;53.362;58.948;2022-11-15T13:29:23;95284.13;;;-4.65;59.05
49943;BME280;36011;53.362;58.948;2022-11-15T13:32:24;95285.91;;;-4.67;59.39
49943;BME280;36011;53.362;58.948;2022-11-15T13:35:33;95294.19;;;-4.59;58.96
49943;BME280;36011;53.362;58.948;2022-11-15T13:38:43;95290.94;;;-4.64;59.08
49943;BME280;36011;53.362;58.948;2022-11-15T13:41:53;95300.84;;;-4.52;58.39
49943;BME280;36011;53.362;58.948;2022-11-15T13:45:04;95298.69;;;-4.65;58.33
49943;BME280;36011;53.362;58.948;2022-11-15T13:48:07;95307.81;;;-4.57;58.47
49943;BME280;36011;53.362;58.948;2022-11-15T13:51:30;95304.56;;;-4.62;57.65
49943;BME280;36011;53.362;58.948;2022-11-15T13:57:58;95301.47;;;-4.73;57.39
49943;BME280;36011;53.362;58.948;2022-11-15T14:01:03;95303.63;;;-4.87;57.46
49943;BME280;36011;53.362;58.948;2022-11-15T14:04:14;95325.22;;;-4.94;57.81
49943;BME280;36011;53.362;58.948;2022-11-15T14:07:22;95324.22;;;-4.90;58.07
49943;BME280;36011;53.362;58.948;2022-11-15T14:10:39;95305.75;;;-5.02;58.10
49943;BME280;36011;53.362;58.948;2022-11-15T14:23:34;95335.50;;;-4.96;59.39
49943;BME280;36011;53.362;58.948;2022-11-15T14:26:35;95334.75;;;-4.98;59.43
49943;BME280;36011;53.362;58.948;2022-11-15T14:29:39;95336.53;;;-5.02;59.33
49943;BME280;36011;53.362;58.948;2022-11-15T14:32:47;95339.00;;;-4.99;59.55
49943;BME280;36011;53.362;58.948;2022-11-15T14:35:51;95340.66;;;-4.96;59.56
49943;BME280;36011;53.362;58.948;2022-11-15T14:38:57;95336.53;;;-5.02;59.80
49943;BME280;36011;53.362;58.948;2022-11-15T14:42:00;95342.34;;;-4.95;59.70
49943;BME280;36011;53.362;58.948;2022-11-15T14:45:02;95351.69;;;-4.92;59.68
49943;BME280;36011;53.362;58.948;2022-11-15T14:48:05;95354.41;;;-4.99;59.98
49943;BME280;36011;53.362;58.948;2022-11-15T14:51:15;95347.78;;;-5.06;60.13
49943;BME280;36011;53.362;58.948;2022-11-15T14:54:17;95356.56;;;-5.14;60.21
49943;BME280;36011;53.362;58.948;2022-11-15T14:57:21;95368.56;;;-5.15;60.20
49943;BME280;36011;53.362;58.948;2022-11-15T15:00:24;95362.88;;;-5.26;60.38
49943;BME280;36011;53.362;58.948;2022-11-15T15:03:25;95370.78;;;-5.34;60.18
49943;BME280;36011;53.362;58.948;2022-11-15T15:06:26;95372.41;;;-5.31;60.06
49943;BME280;36011;53.362;58.948;2022-11-15T15:09:28;95371.84;;;-5.43;60.44
49943;BME280;36011;53.362;58.948;2022-11-15T15:12:29;95378.00;;;-5.48;60.15
49943;BME280;36011;53.362;58.948;2022-11-15T15:15:35;95374.69;;;-5.52;60.76
49943;BME280;36011;53.362;58.948;2022-11-15T15:18:40;95378.19;;;-5.56;60.61
49943;BME280;36011;53.362;58.948;2022-11-15T15:21:49;95381.63;;;-5.57;60.61
49943;BME280;36011;53.362;58.948;2022-11-15T15:24:56;95379.25;;;-5.63;60.78
49943;BME280;36011;53.362;58.948;2022-11-15T15:27:58;95389.66;;;-5.71;61.10
49943;BME280;36011;53.362;58.948;2022-11-15T15:31:00;95377.78;;;-5.73;60.94
49943;BME280;36011;53.362;58.948;2022-11-15T15:34:01;95388.78;;;-5.70;61.13
49943;BME280;36011;53.362;58.948;2022-11-15T15:37:26;95393.91;;;-5.70;61.10
49943;BME280;36011;53.362;58.948;2022-11-15T15:40:29;95393.31;;;-5.79;61.18
49943;BME280;36011;53.362;58.948;2022-11-15T15:43:31;95393.38;;;-5.82;61.77
49943;BME280;36011;53.362;58.948;2022-11-15T15:46:36;95395.22;;;-5.88;61.68
49943;BME280;36011;53.362;58.948;2022-11-15T15:49:42;95398.59;;;-5.85;61.23
49943;BME280;36011;53.362;58.948;2022-11-15T15:52:45;95395.91;;;-5.81;61.31
49943;BME280;36011;53.362;58.948;2022-11-15T15:55:49;95404.56;;;-5.87;61.70
49943;BME280;36011;53.362;58.948;2022-11-15T15:58:50;95412.16;;;-5.82;61.82
49943;BME280;36011;53.362;58.948;2022-11-15T16:02:02;95410.50;;;-5.84;61.68
49943;BME280;36011;53.362;58.948;2022-11-15T16:05:04;95422.50;;;-5.87;61.44
49943;BME280;36011;53.362;58.948;2022-11-15T16:08:20;95419.31;;;-5.95;62.22
49943;BME280;36011;53.362;58.948;2022-11-15T16:11:22;95424.56;;;-6.01;62.01
49943;BME280;36011;53.362;58.948;2022-11-15T16:14:23;95424.66;;;-6.04;62.56
49943;BME280;36011;53.362;58.948;2022-11-15T16:17:34;95435.13;;;-6.15;62.84
49943;BME280;36011;53.362;58.948;2022-11-15T16:23:40;95437.00;;;-6.21;62.13
49943;BME280;36011;53.362;58.948;2022-11-15T16:26:41;95439.66;;;-6.26;62.21
49943;BME280;36011;53.362;58.948;2022-11-15T16:29:43;95437.22;;;-6.30;62.65
49943;BME280;36011;53.362;58.948;2022-11-15T16:32:57;95437.00;;;-6.21;62.82
49943;BME280;36011;53.362;58.948;2022-11-15T16:35:58;95440.25;;;-6.13;62.67
49943;BME280;36011;53.362;58.948;2022-11-15T16:39:00;95454.84;;;-6.17;62.34
49943;BME280;36011;53.362;58.948;2022-11-15T16:42:05;95452.50;;;-6.27;63.10
49943;BME280;36011;53.362;58.948;2022-11-15T16:45:11;95454.31;;;-6.33;62.84
49943;BME280;36011;53.362;58.948;2022-11-15T16:48:26;95462.75;;;-6.27;62.80
49943;BME280;36011;53.362;58.948;2022-11-15T16:51:27;95455.88;;;-6.25;63.27
49943;BME280;36011;53.362;58.948;2022-11-15T16:54:31;95468.63;;;-6.22;63.03
49943;BME280;36011;53.362;58.948;2022-11-15T16:57:35;95466.16;;;-6.28;63.34
49943;BME280;36011;53.362;58.948;2022-11-15T17:00:36;95464.69;;;-6.39;64.02
49943;BME280;36011;53.362;58.948;2022-11-15T17:03:37;95469.13;;;-6.45;63.97
49943;BME280;36011;53.362;58.948;2022-11-15T17:06:45;95482.13;;;-6.56;63.69
49943;BME280;36011;53.362;58.948;2022-11-15T17:09:47;95472.22;;;-6.73;63.98
49943;BME280;36011;53.362;58.948;2022-11-15T17:12:48;95482.53;;;-6.78;64.60
49943;BME280;36011;53.362;58.948;2022-11-15T17:16:12;95484.28;;;-6.80;64.56
49943;BME280;36011;53.362;58.948;2022-11-15T17:19:17;95490.25;;;-6.79;64.87
49943;BME280;36011;53.362;58.948;2022-11-15T17:22:19;95483.31;;;-6.74;64.72
49943;BME280;36011;53.362;58.948;2022-11-15T17:25:21;95492.38;;;-6.58;64.71
49943;BME280;36011;53.362;58.948;2022-11-15T17:28:22;95493.91;;;-6.49;64.43
49943;BME280;36011;53.362;58.948;2022-11-15T17:31:29;95494.69;;;-6.45;64.42
49943;BME280;36011;53.362;58.948;2022-11-15T17:34:36;95497.19;;;-6.42;64.82
49943;BME280;36011;53.362;58.948;2022-11-15T17:37:37;95505.66;;;-6.39;64.09
49943;BME280;36011;53.362;58.948;2022-11-15T17:40:39;95500.53;;;-6.39;64.51
49943;BME280;36011;53.362;58.948;2022-11-15T17:43:41;95514.94;;;-6.35;64.75
49943;BME280;36011;53.362;58.948;2022-11-15T17:46:44;95510.97;;;-6.48;64.15
49943;BME280;36011;53.362;58.948;2022-11-15T17:49:51;95519.63;;;-6.55;64.33
49943;BME280;36011;53.362;58.948;2022-11-15T17:52:52;95517.13;;;-6.60;64.77
49943;BME280;36011;53.362;58.948;2022-11-15T17:55:53;95518.06;;;-6.62;65.21
49943;BME280;36011;53.362;58.948;2022-11-15T17:59:00;95514.69;;;-6.64;64.78
49943;BME280;36011;53.362;58.948;2022-11-15T18:02:08;95526.78;;;-6.74;64.76